createdAt,value
2023-04-29T00:00:57.548Z,10.11
2023-04-29T00:03:29.115Z,10.15
2023-04-29T00:05:58.412Z,10.17
2023-04-29T00:08:26.446Z,10.19
2023-04-29T00:10:54.225Z,10.20
2023-04-29T00:13:22.043Z,10.20
2023-04-29T00:15:50.525Z,10.20
2023-04-29T00:18:18.144Z,10.20
2023-04-29T00:20:45.811Z,10.21
2023-04-29T00:23:14.828Z,10.23
2023-04-29T00:25:42.483Z,10.25
2023-04-29T00:28:10.137Z,10.24
2023-04-29T00:30:37.793Z,10.26
2023-04-29T00:33:05.485Z,10.28
2023-04-29T00:35:33.225Z,10.29
2023-04-29T00:38:00.987Z,10.27
2023-04-29T00:40:30.403Z,10.29
2023-04-29T00:42:58.179Z,10.30
2023-04-29T00:45:26.049Z,10.33
2023-04-29T00:47:53.776Z,10.36
2023-04-29T00:50:22.934Z,10.37
2023-04-29T00:52:50.575Z,10.41
2023-04-29T00:55:18.642Z,10.42
2023-04-29T00:57:50.070Z,10.43
2023-04-29T01:00:17.821Z,10.43
2023-04-29T01:02:46.239Z,10.44
2023-04-29T01:05:15.114Z,10.47
2023-04-29T01:07:47.236Z,10.50
2023-04-29T01:10:17.926Z,10.52
2023-04-29T01:12:50.802Z,10.53
2023-04-29T01:15:23.565Z,10.53
2023-04-29T01:17:53.296Z,10.51
2023-04-29T01:20:22.271Z,10.53
2023-04-29T01:22:49.992Z,10.52
2023-04-29T01:25:19.541Z,10.53
2023-04-29T01:27:54.530Z,10.53
2023-04-29T01:30:30.058Z,10.54
2023-04-29T01:33:02.525Z,10.56
2023-04-29T01:35:41.727Z,10.55
2023-04-29T01:38:18.839Z,10.57
2023-04-29T01:40:54.819Z,10.60
2023-04-29T01:43:24.702Z,10.59
2023-04-29T01:45:53.760Z,10.62
2023-04-29T01:48:21.889Z,10.64
2023-04-29T01:50:49.559Z,10.66
2023-04-29T01:53:17.167Z,10.68
2023-04-29T01:55:44.890Z,10.69
2023-04-29T01:58:13.912Z,10.68
2023-04-29T02:00:42.578Z,10.73
2023-04-29T02:03:10.333Z,10.75
2023-04-29T02:05:38.094Z,10.78
2023-04-29T02:08:07.506Z,10.79
2023-04-29T02:10:35.324Z,10.78
2023-04-29T02:13:03.063Z,10.77
2023-04-29T02:15:32.076Z,10.74
2023-04-29T02:17:59.811Z,10.70
2023-04-29T02:20:27.489Z,10.70
2023-04-29T02:22:55.143Z,10.68
2023-04-29T02:25:22.905Z,10.71
2023-04-29T02:27:50.559Z,10.72
2023-04-29T02:30:18.319Z,10.71
2023-04-29T02:32:47.410Z,10.72
2023-04-29T02:35:15.287Z,10.71
2023-04-29T02:37:42.908Z,10.72
2023-04-29T02:40:11.317Z,10.74
2023-04-29T02:42:39.006Z,10.75
2023-04-29T02:45:08.001Z,10.74
2023-04-29T02:47:35.655Z,10.76
2023-04-29T02:50:05.658Z,10.77
2023-04-29T02:52:33.319Z,10.78
2023-04-29T02:55:00.987Z,10.77
2023-04-29T02:57:29.578Z,10.75
2023-04-29T02:59:57.460Z,10.73
2023-04-29T03:02:25.250Z,10.70
2023-04-29T03:04:53.125Z,10.72
2023-04-29T03:07:22.139Z,10.71
2023-04-29T03:09:49.849Z,10.72
2023-04-29T03:12:17.731Z,10.73
2023-04-29T03:14:45.352Z,10.69
2023-04-29T03:17:13.144Z,10.68
2023-04-29T03:19:40.831Z,10.66
2023-04-29T03:22:10.554Z,10.67
2023-04-29T03:24:39.848Z,10.64
2023-04-29T03:27:07.478Z,10.64
2023-04-29T03:29:35.132Z,10.65
2023-04-29T03:32:03.078Z,10.63
2023-04-29T03:34:31.272Z,10.61
2023-04-29T03:36:59.061Z,10.62
2023-04-29T03:39:28.219Z,10.61
2023-04-29T03:41:57.252Z,10.58
2023-04-29T03:44:25.239Z,10.58
2023-04-29T03:46:52.980Z,10.57
2023-04-29T03:49:20.613Z,10.54
2023-04-29T03:51:48.277Z,10.47
2023-04-29T03:54:16.111Z,10.46
2023-04-29T03:56:43.834Z,10.41
2023-04-29T03:59:12.859Z,10.38
2023-04-29T04:01:40.665Z,10.35
2023-04-29T04:04:08.577Z,10.33
2023-04-29T04:06:36.384Z,10.33
2023-04-29T04:09:04.070Z,10.37
2023-04-29T04:11:31.736Z,10.36
2023-04-29T04:13:59.421Z,10.33
2023-04-29T04:16:28.493Z,10.33
2023-04-29T04:18:56.288Z,10.35
2023-04-29T04:21:23.971Z,10.41
2023-04-29T04:23:51.591Z,10.42
2023-04-29T04:26:20.567Z,10.47
2023-04-29T04:28:48.199Z,10.50
2023-04-29T04:31:15.903Z,10.55
2023-04-29T04:33:44.945Z,10.57
2023-04-29T04:36:12.643Z,10.58
2023-04-29T04:38:40.349Z,10.64
2023-04-29T04:41:08.469Z,10.67
2023-04-29T04:43:36.138Z,10.68
2023-04-29T04:46:11.358Z,10.70
2023-04-29T04:48:39.061Z,10.73
2023-04-29T04:51:10.989Z,10.74
2023-04-29T04:53:38.976Z,10.80
2023-04-29T04:56:07.538Z,10.82
2023-04-29T04:58:35.185Z,10.83
2023-04-29T05:01:02.930Z,10.85
2023-04-29T05:03:30.908Z,10.88
2023-04-29T05:05:59.629Z,10.92
2023-04-29T05:08:28.618Z,10.95
2023-04-29T05:10:56.713Z,10.99
2023-04-29T05:13:25.438Z,11.03
2023-04-29T05:15:53.090Z,11.08
2023-04-29T05:18:20.843Z,11.15
2023-04-29T05:20:48.491Z,11.23
2023-04-29T05:23:16.111Z,11.27
2023-04-29T05:25:45.260Z,11.30
2023-04-29T05:28:12.935Z,11.35
2023-04-29T05:30:41.006Z,11.39
2023-04-29T05:33:08.805Z,11.42
2023-04-29T05:35:36.686Z,11.49
2023-04-29T05:38:04.435Z,11.55
2023-04-29T05:40:32.100Z,11.59
2023-04-29T05:43:01.133Z,11.64
2023-04-29T05:45:29.090Z,11.68
2023-04-29T05:47:56.832Z,11.72
2023-04-29T05:50:24.642Z,11.79
2023-04-29T05:52:54.620Z,11.85
2023-04-29T05:55:22.533Z,11.93
2023-04-29T05:57:50.359Z,11.96
2023-04-29T06:00:19.582Z,12.03
2023-04-29T06:02:57.524Z,12.12
2023-04-29T06:05:27.036Z,12.20
2023-04-29T06:07:55.220Z,12.28
2023-04-29T06:10:22.882Z,12.35
2023-04-29T06:12:51.718Z,12.41
2023-04-29T06:15:21.052Z,12.44
2023-04-29T06:17:48.732Z,12.42
2023-04-29T06:20:17.663Z,12.42
2023-04-29T06:22:46.291Z,12.46
2023-04-29T06:25:14.119Z,12.54
2023-04-29T06:27:41.875Z,12.66
2023-04-29T06:30:10.513Z,12.73
2023-04-29T06:32:39.694Z,12.78
2023-04-29T06:35:08.310Z,12.80
2023-04-29T06:37:37.935Z,12.79
2023-04-29T06:40:07.132Z,12.81
2023-04-29T06:42:34.733Z,12.91
2023-04-29T06:45:02.466Z,13.05
2023-04-29T06:47:30.133Z,13.11
2023-04-29T06:49:59.257Z,13.25
2023-04-29T06:52:26.850Z,13.30
2023-04-29T06:54:54.463Z,13.33
2023-04-29T06:57:22.261Z,13.52
2023-04-29T06:59:50.227Z,13.80
2023-04-29T07:02:17.921Z,13.88
2023-04-29T07:04:45.735Z,14.19
2023-04-29T07:07:14.732Z,14.46
2023-04-29T07:09:42.384Z,14.62
2023-04-29T07:12:10.045Z,14.75
2023-04-29T07:14:37.785Z,14.68
2023-04-29T07:17:05.469Z,14.93
2023-04-29T07:19:33.142Z,14.74
2023-04-29T07:22:00.755Z,14.92
2023-04-29T07:24:29.756Z,15.16
2023-04-29T07:26:57.356Z,15.56
2023-04-29T07:29:25.115Z,15.77
2023-04-29T07:31:53.093Z,15.93
2023-04-29T07:34:20.731Z,16.02
2023-04-29T07:36:48.385Z,16.26
2023-04-29T07:39:16.923Z,16.39
2023-04-29T07:41:46.053Z,16.44
2023-04-29T07:44:13.731Z,16.63
2023-04-29T07:46:41.940Z,16.88
2023-04-29T07:49:10.332Z,17.17
2023-04-29T07:51:37.956Z,16.74
2023-04-29T07:54:05.738Z,16.40
2023-04-29T07:56:33.325Z,16.01
2023-04-29T07:59:02.333Z,16.34
2023-04-29T08:01:30.035Z,16.61
2023-04-29T08:03:57.991Z,16.44
2023-04-29T08:06:25.929Z,16.29
2023-04-29T08:08:53.601Z,15.97
2023-04-29T08:11:22.350Z,16.02
2023-04-29T08:13:50.030Z,15.98
2023-04-29T08:16:19.377Z,15.93
2023-04-29T08:18:47.319Z,15.82
2023-04-29T08:21:14.994Z,15.78
2023-04-29T08:23:42.699Z,15.79
2023-04-29T08:26:12.843Z,16.24
2023-04-29T08:28:40.582Z,16.54
2023-04-29T08:31:08.421Z,16.51
2023-04-29T08:33:37.890Z,16.57
2023-04-29T08:36:06.318Z,16.44
2023-04-29T08:38:33.960Z,16.46
2023-04-29T08:41:02.303Z,16.25
2023-04-29T08:43:30.466Z,16.54
2023-04-29T08:45:59.745Z,17.09
2023-04-29T08:48:29.296Z,17.32
2023-04-29T08:50:58.527Z,17.44
2023-04-29T08:53:26.733Z,17.27
2023-04-29T08:55:56.367Z,17.26
2023-04-29T08:58:25.392Z,17.17
2023-04-29T09:00:53.405Z,16.68
2023-04-29T09:03:28.250Z,16.31
2023-04-29T09:05:57.920Z,16.25
2023-04-29T09:08:25.832Z,16.23
2023-04-29T09:10:54.014Z,16.23
2023-04-29T09:13:26.280Z,16.59
2023-04-29T09:15:54.360Z,16.91
2023-04-29T09:18:42.705Z,17.09
2023-04-29T09:21:22.057Z,17.31
2023-04-29T09:23:51.533Z,17.65
2023-04-29T09:26:19.363Z,17.87
2023-04-29T09:28:47.877Z,18.11
2023-04-29T09:31:15.813Z,18.55
2023-04-29T09:33:53.789Z,18.25
2023-04-29T09:36:38.453Z,17.96
2023-04-29T09:39:11.314Z,18.02
2023-04-29T09:42:02.604Z,18.11
2023-04-29T09:44:34.452Z,18.15
2023-04-29T09:47:03.912Z,18.17
2023-04-29T09:49:35.658Z,18.09
2023-04-29T09:52:05.888Z,17.95
2023-04-29T09:54:36.247Z,18.12
2023-04-29T09:57:05.934Z,18.44
2023-04-29T09:59:36.162Z,18.41
2023-04-29T10:02:09.322Z,18.20
2023-04-29T10:04:40.791Z,18.44
2023-04-29T10:07:09.931Z,18.62
2023-04-29T10:09:39.027Z,18.47
2023-04-29T10:12:08.491Z,18.19
2023-04-29T10:14:40.874Z,18.28
2023-04-29T10:17:12.755Z,18.04
2023-04-29T10:19:41.341Z,18.14
2023-04-29T10:22:14.089Z,18.36
2023-04-29T10:24:42.079Z,17.72
2023-04-29T10:27:12.283Z,18.00
2023-04-29T10:29:41.579Z,18.07
2023-04-29T10:32:10.871Z,17.86
2023-04-29T10:34:40.515Z,17.55
2023-04-29T10:37:11.406Z,17.86
2023-04-29T10:39:45.234Z,18.04
2023-04-29T10:42:18.476Z,18.04
2023-04-29T10:45:19.556Z,18.14
2023-04-29T10:48:11.925Z,18.36
2023-04-29T10:51:09.463Z,18.27
2023-04-29T10:54:02.083Z,18.18
2023-04-29T10:56:38.218Z,18.02
2023-04-29T10:59:05.979Z,17.32
2023-04-29T11:01:45.503Z,17.47
2023-04-29T11:04:13.538Z,17.44
2023-04-29T11:06:43.424Z,17.76
2023-04-29T11:09:18.211Z,17.90
2023-04-29T11:12:00.598Z,17.96
2023-04-29T11:14:31.438Z,17.95
2023-04-29T11:17:00.463Z,18.00
2023-04-29T11:19:33.007Z,18.35
2023-04-29T11:22:12.292Z,18.36
2023-04-29T11:24:52.224Z,18.49
2023-04-29T11:27:22.859Z,18.38
2023-04-29T11:29:51.343Z,18.18
2023-04-29T11:32:21.776Z,18.18
2023-04-29T11:34:49.518Z,18.42
2023-04-29T11:37:21.616Z,18.46
2023-04-29T11:39:50.801Z,18.73
2023-04-29T11:42:23.730Z,18.92
2023-04-29T11:44:56.763Z,18.90
2023-04-29T11:47:27.831Z,18.84
2023-04-29T11:49:55.832Z,19.02
2023-04-29T11:52:23.512Z,18.92
2023-04-29T11:54:52.998Z,18.86
2023-04-29T11:57:20.925Z,18.89
2023-04-29T11:59:48.533Z,18.95
2023-04-29T12:02:16.238Z,18.74
2023-04-29T12:04:47.877Z,18.66
2023-04-29T12:07:16.770Z,18.82
2023-04-29T12:09:44.906Z,18.84
2023-04-29T12:12:15.890Z,18.77
2023-04-29T12:14:44.041Z,18.38
2023-04-29T12:17:11.909Z,18.73
2023-04-29T12:19:41.518Z,18.63
2023-04-29T12:22:09.414Z,18.95
2023-04-29T12:24:37.745Z,18.92
2023-04-29T12:27:06.311Z,19.31
2023-04-29T12:29:35.345Z,19.32
2023-04-29T12:32:02.993Z,19.05
2023-04-29T12:34:31.917Z,18.98
2023-04-29T12:37:01.179Z,19.27
2023-04-29T12:39:29.168Z,19.21
2023-04-29T12:41:59.004Z,19.19
2023-04-29T12:44:27.018Z,19.24
2023-04-29T12:46:58.443Z,19.42
2023-04-29T12:49:26.294Z,19.37
2023-04-29T12:51:54.036Z,18.69
2023-04-29T12:54:21.680Z,18.83
2023-04-29T12:56:50.504Z,19.13
2023-04-29T12:59:18.373Z,18.93
2023-04-29T13:01:46.495Z,18.88
2023-04-29T13:04:15.844Z,19.05
2023-04-29T13:06:43.531Z,18.97
2023-04-29T13:09:17.454Z,18.98
2023-04-29T13:11:46.153Z,18.51
2023-04-29T13:14:13.912Z,18.57
2023-04-29T13:16:41.762Z,18.99
2023-04-29T13:19:29.406Z,19.48
2023-04-29T13:21:58.585Z,19.68
2023-04-29T13:24:26.252Z,19.63
2023-04-29T13:26:54.506Z,19.20
2023-04-29T13:29:22.236Z,19.21
2023-04-29T13:31:49.965Z,19.04
2023-04-29T13:34:17.785Z,19.26
2023-04-29T13:36:45.703Z,19.38
2023-04-29T13:39:15.115Z,19.34
2023-04-29T13:41:45.951Z,19.29
2023-04-29T13:46:47.467Z,18.74
2023-04-29T13:49:42.341Z,18.96
2023-04-29T13:52:58.419Z,18.96
2023-04-29T13:55:12.365Z,19.00
2023-04-29T13:58:31.123Z,19.11
2023-04-29T14:05:26.480Z,19.41
2023-04-29T14:07:54.348Z,19.11
2023-04-29T14:10:23.541Z,19.02
2023-04-29T14:12:51.180Z,19.18
2023-04-29T14:15:18.969Z,18.84
2023-04-29T14:17:46.586Z,18.18
2023-04-29T14:20:14.920Z,18.65
2023-04-29T14:22:42.616Z,18.75
2023-04-29T14:25:12.407Z,18.76
2023-04-29T14:27:42.015Z,18.46
2023-04-29T14:30:10.478Z,18.63
2023-04-29T14:32:38.251Z,18.54
2023-04-29T14:35:06.722Z,18.15
2023-04-29T14:37:34.397Z,18.41
2023-04-29T14:40:02.052Z,18.50
2023-04-29T14:42:29.685Z,18.44
2023-04-29T14:44:58.699Z,18.37
2023-04-29T14:47:26.423Z,17.36
2023-04-29T14:49:54.121Z,17.29
2023-04-29T14:52:21.751Z,17.52
2023-04-29T14:54:49.690Z,17.62
2023-04-29T14:57:17.279Z,17.75
2023-04-29T14:59:45.079Z,17.80
2023-04-29T15:02:14.091Z,18.06
2023-04-29T15:04:45.734Z,18.00
2023-04-29T15:07:13.630Z,17.71
2023-04-29T15:09:41.368Z,17.74
2023-04-29T15:12:09.494Z,17.43
2023-04-29T15:14:37.318Z,17.29
2023-04-29T15:17:04.993Z,16.92
2023-04-29T15:19:33.991Z,16.98
2023-04-29T15:22:01.610Z,17.04
2023-04-29T15:24:29.264Z,17.41
2023-04-29T15:26:56.980Z,17.64
2023-04-29T15:29:24.611Z,17.69
2023-04-29T15:31:52.320Z,17.82
2023-04-29T15:34:20.060Z,17.37
2023-04-29T15:36:49.871Z,17.20
2023-04-29T15:39:17.732Z,17.33
2023-04-29T15:41:45.373Z,17.38
2023-04-29T15:44:12.989Z,17.71
2023-04-29T15:46:40.672Z,17.81
2023-04-29T15:49:08.330Z,17.46
2023-04-29T15:51:35.986Z,17.60
2023-04-29T15:54:05.486Z,17.73
2023-04-29T15:56:33.125Z,17.80
2023-04-29T15:59:00.760Z,17.52
2023-04-29T16:01:29.100Z,16.93
2023-04-29T16:03:56.799Z,16.88
2023-04-29T16:06:24.632Z,17.07
2023-04-29T16:08:52.315Z,16.80
2023-04-29T16:11:21.618Z,16.75
2023-04-29T16:13:49.703Z,16.59
2023-04-29T16:16:17.913Z,16.42
2023-04-29T16:18:46.167Z,16.48
2023-04-29T16:21:13.941Z,16.02
2023-04-29T16:23:41.620Z,15.66
2023-04-29T16:26:09.596Z,15.48
2023-04-29T16:28:38.703Z,15.86
2023-04-29T16:31:06.361Z,15.96
2023-04-29T16:33:34.032Z,16.15
2023-04-29T16:36:02.991Z,16.00
2023-04-29T16:38:30.723Z,16.06
2023-04-29T16:40:58.339Z,15.96
2023-04-29T16:43:25.984Z,16.00
2023-04-29T16:45:55.025Z,15.94
2023-04-29T16:48:22.723Z,15.99
2023-04-29T16:50:50.636Z,16.10
2023-04-29T16:53:18.435Z,16.20
2023-04-29T16:55:46.578Z,16.18
2023-04-29T16:58:14.260Z,15.85
2023-04-29T17:00:41.896Z,15.81
2023-04-29T17:03:11.066Z,15.59
2023-04-29T17:05:38.813Z,15.44
2023-04-29T17:08:06.642Z,15.36
2023-04-29T17:10:34.366Z,15.30
2023-04-29T17:13:02.005Z,15.11
2023-04-29T17:15:29.717Z,14.98
2023-04-29T17:17:57.532Z,15.07
2023-04-29T17:20:27.089Z,14.92
2023-04-29T17:22:54.778Z,14.80
2023-04-29T17:25:23.512Z,14.61
2023-04-29T17:27:51.138Z,14.67
2023-04-29T17:30:19.012Z,14.62
2023-04-29T17:32:49.331Z,14.74
2023-04-29T17:35:17.132Z,14.63
2023-04-29T17:37:46.828Z,14.39
2023-04-29T17:40:15.101Z,14.49
2023-04-29T17:42:42.724Z,14.35
2023-04-29T17:45:11.556Z,14.35
2023-04-29T17:47:39.599Z,14.25
2023-04-29T17:50:08.440Z,14.32
2023-04-29T17:52:36.377Z,14.35
2023-04-29T17:55:06.134Z,14.31
2023-04-29T17:57:33.970Z,14.31
2023-04-29T18:00:01.806Z,14.25
2023-04-29T18:02:29.531Z,14.16
2023-04-29T18:04:57.764Z,14.11
2023-04-29T18:07:25.546Z,13.96
2023-04-29T18:09:53.537Z,13.84
2023-04-29T18:12:24.144Z,13.80
2023-04-29T18:14:52.717Z,13.76
2023-04-29T18:17:20.670Z,13.85
2023-04-29T18:19:49.598Z,13.91
2023-04-29T18:22:17.353Z,13.89
2023-04-29T18:24:45.172Z,13.94
2023-04-29T18:27:12.892Z,13.76
2023-04-29T18:29:42.299Z,13.68
2023-04-29T18:32:10.127Z,13.76
2023-04-29T18:34:37.835Z,13.88
2023-04-29T18:37:05.526Z,13.85
2023-04-29T18:39:33.195Z,13.87
2023-04-29T18:42:00.813Z,13.90
2023-04-29T18:44:28.968Z,13.77
2023-04-29T18:46:57.994Z,13.61
2023-04-29T18:49:25.668Z,13.62
2023-04-29T18:51:53.431Z,13.74
2023-04-29T18:54:21.151Z,13.80
2023-04-29T18:56:50.191Z,13.52
2023-04-29T18:59:19.630Z,13.47
2023-04-29T19:01:47.851Z,13.41
2023-04-29T19:04:17.653Z,13.47
2023-04-29T19:06:45.632Z,13.57
2023-04-29T19:09:13.586Z,13.57
2023-04-29T19:11:41.414Z,13.60
2023-04-29T19:14:09.072Z,13.61
2023-04-29T19:16:37.344Z,13.55
2023-04-29T19:19:05.312Z,13.46
2023-04-29T19:21:34.313Z,13.49
2023-04-29T19:24:02.001Z,13.55
2023-04-29T19:26:32.839Z,13.48
2023-04-29T19:29:02.377Z,13.41
2023-04-29T19:31:30.054Z,13.37
2023-04-29T19:33:57.751Z,13.30
2023-04-29T19:36:25.864Z,13.33
2023-04-29T19:38:54.981Z,13.38
2023-04-29T19:41:22.773Z,13.23
2023-04-29T19:43:50.684Z,12.88
2023-04-29T19:46:18.416Z,12.89
2023-04-29T19:48:46.207Z,12.82
2023-04-29T19:51:13.879Z,12.67
2023-04-29T19:53:41.813Z,12.62
2023-04-29T19:56:10.863Z,12.57
2023-04-29T19:58:38.560Z,12.66
2023-04-29T20:01:06.540Z,12.53
2023-04-29T20:03:36.091Z,12.44
2023-04-29T20:06:04.259Z,12.43
2023-04-29T20:08:31.980Z,12.48
2023-04-29T20:11:00.771Z,12.45
2023-04-29T20:13:29.823Z,12.50
2023-04-29T20:15:57.527Z,12.53
2023-04-29T20:18:25.254Z,12.53
2023-04-29T20:20:53.021Z,12.50
2023-04-29T20:23:21.086Z,12.27
2023-04-29T20:25:48.890Z,12.17
2023-04-29T20:28:16.629Z,12.20
2023-04-29T20:30:45.901Z,12.23
2023-04-29T20:33:13.616Z,12.13
2023-04-29T20:35:41.351Z,12.17
2023-04-29T20:38:09.041Z,12.25
2023-04-29T20:40:36.842Z,12.27
2023-04-29T20:43:04.630Z,12.32
2023-04-29T20:45:32.430Z,12.29
2023-04-29T20:48:01.608Z,12.32
2023-04-29T20:50:29.343Z,12.32
2023-04-29T20:52:57.033Z,12.34
2023-04-29T20:55:25.247Z,12.34
2023-04-29T20:57:53.414Z,12.34
2023-04-29T21:00:21.533Z,12.38
2023-04-29T21:02:49.341Z,12.36
2023-04-29T21:05:18.571Z,12.36
2023-04-29T21:07:46.379Z,12.39
2023-04-29T21:10:14.260Z,12.39
2023-04-29T21:12:41.985Z,12.28
2023-04-29T21:15:10.435Z,12.07
2023-04-29T21:17:38.315Z,12.07
2023-04-29T21:20:08.719Z,12.02
2023-04-29T21:22:37.730Z,12.03
2023-04-29T21:25:06.423Z,11.98
2023-04-29T21:27:35.927Z,12.00
2023-04-29T21:30:04.806Z,11.99
2023-04-29T21:32:33.627Z,11.95
2023-04-29T21:35:01.592Z,12.00
2023-04-29T21:37:30.516Z,12.05
2023-04-29T21:40:00.406Z,12.02
2023-04-29T21:42:28.199Z,12.08
2023-04-29T21:44:56.103Z,12.06
2023-04-29T21:47:24.356Z,12.04
2023-04-29T21:49:53.138Z,12.08
2023-04-29T21:52:21.391Z,12.09
2023-04-29T21:54:49.369Z,12.07
2023-04-29T21:57:21.987Z,12.05
2023-04-29T21:59:54.419Z,12.01
2023-04-29T22:02:25.073Z,11.85
2023-04-29T22:04:53.413Z,11.90
2023-04-29T22:07:22.867Z,11.91
2023-04-29T22:09:50.672Z,11.94
2023-04-29T22:12:20.590Z,11.99
2023-04-29T22:14:48.390Z,11.99
2023-04-29T22:17:16.053Z,11.97
2023-04-29T22:19:43.685Z,11.96
2023-04-29T22:22:11.358Z,11.97
2023-04-29T22:24:39.262Z,11.95
2023-04-29T22:27:06.954Z,11.94
2023-04-29T22:29:36.528Z,11.88
2023-04-29T22:32:04.511Z,11.82
2023-04-29T22:34:32.398Z,11.69
2023-04-29T22:37:00.161Z,11.52
2023-04-29T22:39:28.822Z,11.49
2023-04-29T22:41:56.845Z,11.48
2023-04-29T22:44:24.859Z,11.48
2023-04-29T22:46:53.973Z,11.45
2023-04-29T22:49:21.707Z,11.36
2023-04-29T22:51:49.925Z,11.33
2023-04-29T22:54:21.716Z,11.35
2023-04-29T22:56:49.866Z,11.34
2023-04-29T22:59:18.018Z,11.12
2023-04-29T23:01:46.248Z,11.08
2023-04-29T23:04:16.102Z,11.09
2023-04-29T23:06:43.977Z,11.13
2023-04-29T23:09:11.673Z,11.11
2023-04-29T23:11:39.396Z,11.07
2023-04-29T23:14:08.304Z,11.03
2023-04-29T23:16:36.355Z,10.99
2023-04-29T23:19:06.004Z,10.97
2023-04-29T23:21:35.835Z,11.01
2023-04-29T23:24:04.778Z,10.94
2023-04-29T23:26:32.742Z,10.89
2023-04-29T23:29:01.082Z,10.92
2023-04-29T23:31:29.579Z,10.98
2023-04-29T23:33:57.664Z,10.99
2023-04-29T23:36:26.108Z,10.87
2023-04-29T23:38:55.136Z,10.88
2023-04-29T23:41:22.806Z,10.84
2023-04-29T23:43:50.616Z,10.72
2023-04-29T23:46:18.577Z,10.58
2023-04-29T23:48:46.286Z,10.66
2023-04-29T23:51:14.288Z,10.62
2023-04-29T23:53:42.208Z,10.60
2023-04-29T23:56:11.942Z,10.54
2023-04-29T23:58:39.609Z,10.56
